sensor_id;sensor_type;location;lat;lon;timestamp;P1;durP1;ratioP1;P2;durP2;ratioP2
22565;SDS011;11449;51.330;19.378;2023-03-11T00:02:06;11.90;;;5.30;;
22565;SDS011;11449;51.330;19.378;2023-03-11T00:07:17;17.20;;;7.30;;
22565;SDS011;11449;51.330;19.378;2023-03-11T00:12:26;37.90;;;10.30;;
22565;SDS011;11449;51.330;19.378;2023-03-11T00:17:34;54.80;;;12.00;;
22565;SDS011;11449;51.330;19.378;2023-03-11T00:22:36;64.40;;;11.30;;
22565;SDS011;11449;51.330;19.378;2023-03-11T00:27:44;54.50;;;9.70;;
22565;SDS011;11449;51.330;19.378;2023-03-11T00:33:11;73.20;;;11.90;;
22565;SDS011;11449;51.330;19.378;2023-03-11T00:38:20;89.70;;;13.70;;
22565;SDS011;11449;51.330;19.378;2023-03-11T00:43:30;60.90;;;11.40;;
22565;SDS011;11449;51.330;19.378;2023-03-11T00:48:38;86.40;;;14.40;;
22565;SDS011;11449;51.330;19.378;2023-03-11T00:53:47;69.10;;;12.10;;
22565;SDS011;11449;51.330;19.378;2023-03-11T00:58:55;79.60;;;12.20;;
22565;SDS011;11449;51.330;19.378;2023-03-11T01:04:03;65.30;;;11.10;;
22565;SDS011;11449;51.330;19.378;2023-03-11T01:09:06;81.40;;;13.20;;
22565;SDS011;11449;51.330;19.378;2023-03-11T01:14:14;55.10;;;10.80;;
22565;SDS011;11449;51.330;19.378;2023-03-11T01:19:22;71.40;;;12.20;;
22565;SDS011;11449;51.330;19.378;2023-03-11T01:24:32;73.40;;;12.40;;
22565;SDS011;11449;51.330;19.378;2023-03-11T01:29:40;114.10;;;25.30;;
22565;SDS011;11449;51.330;19.378;2023-03-11T01:34:48;41.10;;;6.80;;
22565;SDS011;11449;51.330;19.378;2023-03-11T01:39:56;46.70;;;7.90;;
22565;SDS011;11449;51.330;19.378;2023-03-11T01:45:28;50.10;;;9.00;;
22565;SDS011;11449;51.330;19.378;2023-03-11T01:50:39;49.90;;;8.00;;
22565;SDS011;11449;51.330;19.378;2023-03-11T01:55:43;51.80;;;8.40;;
22565;SDS011;11449;51.330;19.378;2023-03-11T02:00:52;52.00;;;9.90;;
22565;SDS011;11449;51.330;19.378;2023-03-11T02:06:02;61.70;;;8.90;;
22565;SDS011;11449;51.330;19.378;2023-03-11T02:11:21;65.50;;;9.50;;
22565;SDS011;11449;51.330;19.378;2023-03-11T02:16:31;54.60;;;7.30;;
22565;SDS011;11449;51.330;19.378;2023-03-11T02:21:40;3.50;;;1.80;;
22565;SDS011;11449;51.330;19.378;2023-03-11T02:26:53;3.50;;;1.70;;
22565;SDS011;11449;51.330;19.378;2023-03-11T02:32:14;2.40;;;1.70;;
22565;SDS011;11449;51.330;19.378;2023-03-11T02:37:24;1.70;;;1.40;;
22565;SDS011;11449;51.330;19.378;2023-03-11T02:42:38;4.20;;;1.90;;
22565;SDS011;11449;51.330;19.378;2023-03-11T02:47:46;2.40;;;1.40;;
22565;SDS011;11449;51.330;19.378;2023-03-11T02:52:49;3.70;;;1.30;;
22565;SDS011;11449;51.330;19.378;2023-03-11T02:57:57;1.80;;;1.70;;
22565;SDS011;11449;51.330;19.378;2023-03-11T03:03:06;1.80;;;1.50;;
22565;SDS011;11449;51.330;19.378;2023-03-11T03:08:15;2.40;;;2.00;;
22565;SDS011;11449;51.330;19.378;2023-03-11T03:13:27;2.80;;;1.90;;
22565;SDS011;11449;51.330;19.378;2023-03-11T03:18:36;3.50;;;2.10;;
22565;SDS011;11449;51.330;19.378;2023-03-11T03:23:44;2.30;;;1.50;;
22565;SDS011;11449;51.330;19.378;2023-03-11T03:28:52;1.70;;;1.20;;
22565;SDS011;11449;51.330;19.378;2023-03-11T03:34:00;2.30;;;2.00;;
22565;SDS011;11449;51.330;19.378;2023-03-11T03:39:08;2.90;;;2.10;;
22565;SDS011;11449;51.330;19.378;2023-03-11T03:44:11;4.80;;;4.30;;
22565;SDS011;11449;51.330;19.378;2023-03-11T03:49:41;4.70;;;3.20;;
22565;SDS011;11449;51.330;19.378;2023-03-11T03:54:48;3.60;;;3.30;;
22565;SDS011;11449;51.330;19.378;2023-03-11T03:59:57;3.90;;;3.50;;
22565;SDS011;11449;51.330;19.378;2023-03-11T04:05:00;5.90;;;5.30;;
22565;SDS011;11449;51.330;19.378;2023-03-11T04:10:14;9.00;;;5.00;;
22565;SDS011;11449;51.330;19.378;2023-03-11T04:15:44;8.90;;;4.80;;
22565;SDS011;11449;51.330;19.378;2023-03-11T04:20:51;8.40;;;5.00;;
22565;SDS011;11449;51.330;19.378;2023-03-11T04:25:59;6.60;;;4.20;;
22565;SDS011;11449;51.330;19.378;2023-03-11T04:31:03;4.70;;;3.80;;
22565;SDS011;11449;51.330;19.378;2023-03-11T04:36:11;6.60;;;4.10;;
22565;SDS011;11449;51.330;19.378;2023-03-11T04:41:19;5.80;;;4.40;;
22565;SDS011;11449;51.330;19.378;2023-03-11T04:46:27;8.20;;;5.50;;
22565;SDS011;11449;51.330;19.378;2023-03-11T04:51:40;4.50;;;3.60;;
22565;SDS011;11449;51.330;19.378;2023-03-11T04:56:48;5.40;;;3.50;;
22565;SDS011;11449;51.330;19.378;2023-03-11T05:01:57;4.90;;;2.70;;
22565;SDS011;11449;51.330;19.378;2023-03-11T05:07:03;6.10;;;3.00;;
22565;SDS011;11449;51.330;19.378;2023-03-11T05:12:12;5.30;;;2.30;;
22565;SDS011;11449;51.330;19.378;2023-03-11T05:17:23;9.70;;;6.50;;
22565;SDS011;11449;51.330;19.378;2023-03-11T05:22:32;2.20;;;1.90;;
22565;SDS011;11449;51.330;19.378;2023-03-11T05:27:49;6.70;;;4.20;;
22565;SDS011;11449;51.330;19.378;2023-03-11T05:33:00;6.20;;;2.40;;
22565;SDS011;11449;51.330;19.378;2023-03-11T05:43:15;1.90;;;1.40;;
22565;SDS011;11449;51.330;19.378;2023-03-11T05:48:26;1.60;;;1.40;;
22565;SDS011;11449;51.330;19.378;2023-03-11T05:53:35;3.80;;;2.00;;
22565;SDS011;11449;51.330;19.378;2023-03-11T05:58:39;7.40;;;6.00;;
22565;SDS011;11449;51.330;19.378;2023-03-11T06:03:47;4.30;;;2.50;;
22565;SDS011;11449;51.330;19.378;2023-03-11T06:08:55;2.80;;;2.50;;
22565;SDS011;11449;51.330;19.378;2023-03-11T06:14:03;9.00;;;5.00;;
22565;SDS011;11449;51.330;19.378;2023-03-11T06:19:07;13.70;;;4.70;;
22565;SDS011;11449;51.330;19.378;2023-03-11T06:24:13;20.60;;;5.10;;
22565;SDS011;11449;51.330;19.378;2023-03-11T06:29:23;38.40;;;6.70;;
22565;SDS011;11449;51.330;19.378;2023-03-11T06:34:33;41.60;;;6.50;;
22565;SDS011;11449;51.330;19.378;2023-03-11T06:39:38;50.20;;;9.30;;
22565;SDS011;11449;51.330;19.378;2023-03-11T06:44:42;44.40;;;6.60;;
22565;SDS011;11449;51.330;19.378;2023-03-11T06:49:55;40.20;;;6.80;;
22565;SDS011;11449;51.330;19.378;2023-03-11T06:54:57;47.40;;;7.60;;
22565;SDS011;11449;51.330;19.378;2023-03-11T07:00:01;42.50;;;7.00;;
22565;SDS011;11449;51.330;19.378;2023-03-11T07:05:16;48.40;;;7.30;;
22565;SDS011;11449;51.330;19.378;2023-03-11T07:10:19;40.30;;;7.10;;
22565;SDS011;11449;51.330;19.378;2023-03-11T07:15:25;45.10;;;7.20;;
22565;SDS011;11449;51.330;19.378;2023-03-11T07:20:33;51.00;;;9.00;;
22565;SDS011;11449;51.330;19.378;2023-03-11T07:25:44;56.60;;;11.90;;
22565;SDS011;11449;51.330;19.378;2023-03-11T07:30:53;39.50;;;7.90;;
22565;SDS011;11449;51.330;19.378;2023-03-11T07:35:56;32.10;;;7.10;;
22565;SDS011;11449;51.330;19.378;2023-03-11T07:40:59;37.60;;;7.30;;
22565;SDS011;11449;51.330;19.378;2023-03-11T07:46:08;52.10;;;9.10;;
22565;SDS011;11449;51.330;19.378;2023-03-11T07:51:13;53.40;;;11.20;;
22565;SDS011;11449;51.330;19.378;2023-03-11T07:56:25;48.60;;;9.60;;
22565;SDS011;11449;51.330;19.378;2023-03-11T08:01:31;93.00;;;21.00;;
22565;SDS011;11449;51.330;19.378;2023-03-11T08:06:47;114.20;;;28.90;;
22565;SDS011;11449;51.330;19.378;2023-03-11T08:11:50;81.40;;;15.00;;
22565;SDS011;11449;51.330;19.378;2023-03-11T08:16:58;49.50;;;9.30;;
22565;SDS011;11449;51.330;19.378;2023-03-11T08:22:06;62.90;;;11.80;;
22565;SDS011;11449;51.330;19.378;2023-03-11T08:27:14;64.00;;;10.60;;
22565;SDS011;11449;51.330;19.378;2023-03-11T08:32:23;62.20;;;14.90;;
22565;SDS011;11449;51.330;19.378;2023-03-11T08:37:44;54.50;;;9.90;;
22565;SDS011;11449;51.330;19.378;2023-03-11T08:43:07;106.50;;;28.70;;
22565;SDS011;11449;51.330;19.378;2023-03-11T08:48:15;66.00;;;17.60;;
22565;SDS011;11449;51.330;19.378;2023-03-11T08:53:23;103.70;;;26.10;;
22565;SDS011;11449;51.330;19.378;2023-03-11T08:58:35;76.10;;;11.50;;
22565;SDS011;11449;51.330;19.378;2023-03-11T09:03:40;68.10;;;10.60;;
22565;SDS011;11449;51.330;19.378;2023-03-11T09:08:48;85.40;;;17.80;;
22565;SDS011;11449;51.330;19.378;2023-03-11T09:14:05;61.10;;;10.70;;
22565;SDS011;11449;51.330;19.378;2023-03-11T09:19:13;43.40;;;9.10;;
22565;SDS011;11449;51.330;19.378;2023-03-11T09:24:16;58.50;;;9.80;;
22565;SDS011;11449;51.330;19.378;2023-03-11T09:29:23;51.50;;;8.50;;
22565;SDS011;11449;51.330;19.378;2023-03-11T09:34:32;51.30;;;7.60;;
22565;SDS011;11449;51.330;19.378;2023-03-11T09:39:38;58.30;;;8.60;;
22565;SDS011;11449;51.330;19.378;2023-03-11T09:44:59;59.20;;;8.20;;
22565;SDS011;11449;51.330;19.378;2023-03-11T09:55:38;63.10;;;9.60;;
22565;SDS011;11449;51.330;19.378;2023-03-11T10:00:41;63.90;;;10.10;;
22565;SDS011;11449;51.330;19.378;2023-03-11T10:05:48;55.50;;;8.20;;
22565;SDS011;11449;51.330;19.378;2023-03-11T10:11:00;77.60;;;11.40;;
22565;SDS011;11449;51.330;19.378;2023-03-11T10:16:17;43.60;;;7.70;;
22565;SDS011;11449;51.330;19.378;2023-03-11T10:21:47;58.30;;;11.00;;
22565;SDS011;11449;51.330;19.378;2023-03-11T10:26:58;28.50;;;5.50;;
22565;SDS011;11449;51.330;19.378;2023-03-11T10:37:41;40.40;;;7.10;;
22565;SDS011;11449;51.330;19.378;2023-03-11T10:42:50;44.80;;;7.30;;
22565;SDS011;11449;51.330;19.378;2023-03-11T10:48:15;42.10;;;7.80;;
22565;SDS011;11449;51.330;19.378;2023-03-11T10:53:23;63.50;;;14.20;;
22565;SDS011;11449;51.330;19.378;2023-03-11T10:58:31;58.80;;;11.20;;
22565;SDS011;11449;51.330;19.378;2023-03-11T11:03:34;43.10;;;9.80;;
22565;SDS011;11449;51.330;19.378;2023-03-11T11:08:44;42.60;;;9.90;;
22565;SDS011;11449;51.330;19.378;2023-03-11T11:14:02;42.30;;;8.70;;
22565;SDS011;11449;51.330;19.378;2023-03-11T11:19:11;44.60;;;9.60;;
22565;SDS011;11449;51.330;19.378;2023-03-11T11:29:31;57.60;;;11.30;;
22565;SDS011;11449;51.330;19.378;2023-03-11T11:34:36;46.20;;;9.80;;
22565;SDS011;11449;51.330;19.378;2023-03-11T11:39:47;46.50;;;8.80;;
22565;SDS011;11449;51.330;19.378;2023-03-11T11:45:09;38.70;;;7.70;;
22565;SDS011;11449;51.330;19.378;2023-03-11T11:50:25;46.10;;;9.20;;
22565;SDS011;11449;51.330;19.378;2023-03-11T11:55:34;41.60;;;9.40;;
22565;SDS011;11449;51.330;19.378;2023-03-11T12:00:57;46.80;;;8.80;;
22565;SDS011;11449;51.330;19.378;2023-03-11T12:06:23;45.90;;;10.00;;
22565;SDS011;11449;51.330;19.378;2023-03-11T12:11:35;61.30;;;11.80;;
22565;SDS011;11449;51.330;19.378;2023-03-11T12:16:51;54.80;;;10.20;;
22565;SDS011;11449;51.330;19.378;2023-03-11T12:27:43;48.20;;;8.30;;
22565;SDS011;11449;51.330;19.378;2023-03-11T12:33:01;57.30;;;10.50;;
22565;SDS011;11449;51.330;19.378;2023-03-11T12:38:16;51.70;;;9.10;;
22565;SDS011;11449;51.330;19.378;2023-03-11T12:43:26;45.70;;;10.10;;
22565;SDS011;11449;51.330;19.378;2023-03-11T13:10:11;47.60;;;9.70;;
22565;SDS011;11449;51.330;19.378;2023-03-11T13:15:31;66.40;;;10.90;;
22565;SDS011;11449;51.330;19.378;2023-03-11T13:36:38;55.50;;;13.50;;
22565;SDS011;11449;51.330;19.378;2023-03-11T13:41:50;46.50;;;9.60;;
22565;SDS011;11449;51.330;19.378;2023-03-11T13:47:03;47.40;;;9.60;;
22565;SDS011;11449;51.330;19.378;2023-03-11T13:52:18;56.00;;;11.00;;
22565;SDS011;11449;51.330;19.378;2023-03-11T13:57:39;79.50;;;15.30;;
22565;SDS011;11449;51.330;19.378;2023-03-11T14:02:48;51.60;;;10.70;;
22565;SDS011;11449;51.330;19.378;2023-03-11T14:08:17;48.20;;;9.50;;
22565;SDS011;11449;51.330;19.378;2023-03-11T14:13:44;58.50;;;11.50;;
22565;SDS011;11449;51.330;19.378;2023-03-11T14:19:00;54.60;;;10.10;;
22565;SDS011;11449;51.330;19.378;2023-03-11T14:24:26;55.10;;;12.60;;
22565;SDS011;11449;51.330;19.378;2023-03-11T14:29:33;57.90;;;12.70;;
22565;SDS011;11449;51.330;19.378;2023-03-11T14:34:42;56.00;;;15.20;;
22565;SDS011;11449;51.330;19.378;2023-03-11T14:39:48;74.10;;;13.00;;
22565;SDS011;11449;51.330;19.378;2023-03-11T14:45:06;62.30;;;12.90;;
22565;SDS011;11449;51.330;19.378;2023-03-11T14:50:27;62.50;;;13.30;;
22565;SDS011;11449;51.330;19.378;2023-03-11T14:55:38;57.10;;;13.10;;
22565;SDS011;11449;51.330;19.378;2023-03-11T15:00:54;89.60;;;24.20;;
22565;SDS011;11449;51.330;19.378;2023-03-11T15:06:14;80.90;;;15.60;;
22565;SDS011;11449;51.330;19.378;2023-03-11T15:11:28;63.60;;;14.30;;
22565;SDS011;11449;51.330;19.378;2023-03-11T15:16:39;51.60;;;11.50;;
22565;SDS011;11449;51.330;19.378;2023-03-11T15:21:45;83.00;;;14.20;;
22565;SDS011;11449;51.330;19.378;2023-03-11T15:26:59;63.60;;;11.60;;
22565;SDS011;11449;51.330;19.378;2023-03-11T15:32:24;73.90;;;14.30;;
22565;SDS011;11449;51.330;19.378;2023-03-11T15:37:35;77.30;;;16.00;;
22565;SDS011;11449;51.330;19.378;2023-03-11T15:42:44;60.20;;;13.70;;
22565;SDS011;11449;51.330;19.378;2023-03-11T15:47:47;63.90;;;12.20;;
22565;SDS011;11449;51.330;19.378;2023-03-11T15:52:58;73.70;;;14.50;;
22565;SDS011;11449;51.330;19.378;2023-03-11T15:58:07;79.80;;;13.20;;
22565;SDS011;11449;51.330;19.378;2023-03-11T16:03:13;45.20;;;8.20;;
22565;SDS011;11449;51.330;19.378;2023-03-11T16:08:24;41.50;;;7.10;;
22565;SDS011;11449;51.330;19.378;2023-03-11T16:13:35;72.80;;;13.40;;
22565;SDS011;11449;51.330;19.378;2023-03-11T16:18:38;76.00;;;12.60;;
22565;SDS011;11449;51.330;19.378;2023-03-11T16:23:48;70.00;;;11.50;;
22565;SDS011;11449;51.330;19.378;2023-03-11T16:29:05;68.00;;;13.00;;
22565;SDS011;11449;51.330;19.378;2023-03-11T16:34:26;68.50;;;14.00;;
22565;SDS011;11449;51.330;19.378;2023-03-11T16:39:29;89.10;;;15.80;;
22565;SDS011;11449;51.330;19.378;2023-03-11T16:44:37;74.90;;;13.40;;
22565;SDS011;11449;51.330;19.378;2023-03-11T16:55:03;68.30;;;14.80;;
22565;SDS011;11449;51.330;19.378;2023-03-11T17:00:15;81.30;;;15.20;;
22565;SDS011;11449;51.330;19.378;2023-03-11T17:05:24;87.70;;;14.90;;
22565;SDS011;11449;51.330;19.378;2023-03-11T17:10:39;73.00;;;14.50;;
22565;SDS011;11449;51.330;19.378;2023-03-11T17:15:56;75.00;;;12.00;;
22565;SDS011;11449;51.330;19.378;2023-03-11T17:21:15;57.30;;;9.50;;
22565;SDS011;11449;51.330;19.378;2023-03-11T17:26:23;50.00;;;8.40;;
22565;SDS011;11449;51.330;19.378;2023-03-11T17:31:35;67.40;;;13.60;;
22565;SDS011;11449;51.330;19.378;2023-03-11T17:36:45;62.50;;;12.50;;
22565;SDS011;11449;51.330;19.378;2023-03-11T17:47:34;72.70;;;13.90;;
22565;SDS011;11449;51.330;19.378;2023-03-11T17:52:44;92.40;;;15.90;;
22565;SDS011;11449;51.330;19.378;2023-03-11T17:57:56;71.10;;;12.90;;
22565;SDS011;11449;51.330;19.378;2023-03-11T18:03:03;42.20;;;7.50;;
22565;SDS011;11449;51.330;19.378;2023-03-11T18:08:09;40.70;;;6.20;;
22565;SDS011;11449;51.330;19.378;2023-03-11T18:13:12;47.70;;;7.80;;
22565;SDS011;11449;51.330;19.378;2023-03-11T18:18:19;48.00;;;8.20;;
22565;SDS011;11449;51.330;19.378;2023-03-11T18:23:30;47.10;;;8.20;;
22565;SDS011;11449;51.330;19.378;2023-03-11T18:28:43;48.60;;;7.60;;
22565;SDS011;11449;51.330;19.378;2023-03-11T18:33:52;47.80;;;7.60;;
22565;SDS011;11449;51.330;19.378;2023-03-11T18:38:56;59.00;;;8.90;;
22565;SDS011;11449;51.330;19.378;2023-03-11T18:44:05;50.80;;;8.90;;
22565;SDS011;11449;51.330;19.378;2023-03-11T18:49:13;54.90;;;8.10;;
22565;SDS011;11449;51.330;19.378;2023-03-11T18:54:30;68.00;;;11.90;;
22565;SDS011;11449;51.330;19.378;2023-03-11T18:59:39;46.80;;;10.00;;
22565;SDS011;11449;51.330;19.378;2023-03-11T19:10:08;57.60;;;13.10;;
22565;SDS011;11449;51.330;19.378;2023-03-11T19:15:24;76.70;;;13.00;;
22565;SDS011;11449;51.330;19.378;2023-03-11T19:20:32;49.90;;;11.10;;
22565;SDS011;11449;51.330;19.378;2023-03-11T19:25:40;49.10;;;9.00;;
22565;SDS011;11449;51.330;19.378;2023-03-11T19:30:49;43.30;;;8.00;;
22565;SDS011;11449;51.330;19.378;2023-03-11T19:35:58;54.90;;;9.00;;
22565;SDS011;11449;51.330;19.378;2023-03-11T19:41:11;50.40;;;9.70;;
22565;SDS011;11449;51.330;19.378;2023-03-11T19:46:23;54.20;;;10.30;;
22565;SDS011;11449;51.330;19.378;2023-03-11T19:51:26;69.90;;;10.50;;
22565;SDS011;11449;51.330;19.378;2023-03-11T19:56:55;71.20;;;11.80;;
22565;SDS011;11449;51.330;19.378;2023-03-11T20:02:09;67.70;;;12.20;;
22565;SDS011;11449;51.330;19.378;2023-03-11T20:07:12;57.10;;;10.10;;
22565;SDS011;11449;51.330;19.378;2023-03-11T20:12:23;61.50;;;11.70;;
22565;SDS011;11449;51.330;19.378;2023-03-11T20:17:33;49.30;;;10.10;;
22565;SDS011;11449;51.330;19.378;2023-03-11T20:22:38;58.90;;;10.90;;
22565;SDS011;11449;51.330;19.378;2023-03-11T20:27:50;65.60;;;12.90;;
22565;SDS011;11449;51.330;19.378;2023-03-11T20:33:04;56.60;;;12.40;;
22565;SDS011;11449;51.330;19.378;2023-03-11T20:38:34;75.70;;;13.80;;
22565;SDS011;11449;51.330;19.378;2023-03-11T20:44:09;72.30;;;13.70;;
22565;SDS011;11449;51.330;19.378;2023-03-11T20:49:21;88.30;;;15.60;;
22565;SDS011;11449;51.330;19.378;2023-03-11T20:54:54;83.60;;;15.30;;
22565;SDS011;11449;51.330;19.378;2023-03-11T21:00:04;77.50;;;14.00;;
22565;SDS011;11449;51.330;19.378;2023-03-11T21:05:33;67.90;;;13.30;;
22565;SDS011;11449;51.330;19.378;2023-03-11T21:16:04;77.40;;;13.80;;
22565;SDS011;11449;51.330;19.378;2023-03-11T21:26:29;89.80;;;15.70;;
22565;SDS011;11449;51.330;19.378;2023-03-11T21:31:37;82.30;;;14.10;;
22565;SDS011;11449;51.330;19.378;2023-03-11T21:36:42;95.60;;;15.40;;
22565;SDS011;11449;51.330;19.378;2023-03-11T21:47:27;58.00;;;11.60;;
22565;SDS011;11449;51.330;19.378;2023-03-11T21:52:35;59.90;;;13.10;;
22565;SDS011;11449;51.330;19.378;2023-03-11T21:58:04;74.40;;;12.90;;
22565;SDS011;11449;51.330;19.378;2023-03-11T22:19:00;55.00;;;12.90;;
22565;SDS011;11449;51.330;19.378;2023-03-11T22:24:10;61.60;;;12.10;;
22565;SDS011;11449;51.330;19.378;2023-03-11T22:29:19;68.80;;;13.00;;
22565;SDS011;11449;51.330;19.378;2023-03-11T22:34:27;60.10;;;12.30;;
22565;SDS011;11449;51.330;19.378;2023-03-11T22:39:38;82.80;;;15.10;;
22565;SDS011;11449;51.330;19.378;2023-03-11T22:44:46;77.00;;;13.60;;
22565;SDS011;11449;51.330;19.378;2023-03-11T22:50:04;76.10;;;13.70;;
22565;SDS011;11449;51.330;19.378;2023-03-11T22:55:15;80.50;;;13.90;;
22565;SDS011;11449;51.330;19.378;2023-03-11T23:10:47;46.50;;;10.20;;
22565;SDS011;11449;51.330;19.378;2023-03-11T23:15:50;69.30;;;11.90;;
22565;SDS011;11449;51.330;19.378;2023-03-11T23:20:56;53.30;;;10.90;;
22565;SDS011;11449;51.330;19.378;2023-03-11T23:26:06;57.10;;;10.50;;
22565;SDS011;11449;51.330;19.378;2023-03-11T23:31:14;73.90;;;11.70;;
22565;SDS011;11449;51.330;19.378;2023-03-11T23:36:32;79.30;;;12.00;;
22565;SDS011;11449;51.330;19.378;2023-03-11T23:41:39;65.50;;;11.60;;
22565;SDS011;11449;51.330;19.378;2023-03-11T23:46:47;46.20;;;9.80;;
22565;SDS011;11449;51.330;19.378;2023-03-11T23:51:55;46.00;;;9.50;;
22565;SDS011;11449;51.330;19.378;2023-03-11T23:57:03;47.40;;;9.30;;
